Robert Fulton — WBS7886 — position and weather

sailwx.info

Track history (hours):
 
Tides and Currents Weather Stations Pressure Air Temp Water Temp Dewpoint Dewpoint Depression Visibility Wind Speed Wind Dir Waves Ship Positions

Robert Fulton

Owner: PORT IMPERIAL FERRY CORP, WEEHAWKEN, NJ. More information available from US FCC via Universal Licensing System and Coast Guard Vessel Documentation Center.

Last reported at 2018-Feb-17 01:07 UTC. Time now 2018-Feb-20 03:45 UTC.
Position N 40°46' W 074°01'.

Length 28 m; draft 2 m.

Type: Passenger vessel. MMSI: 366702000.

Date/timePositionNaut miles runAvg speedWind from/ knotsBaromVisibWave heightAir tempDewpointWater temp
2018-Feb-17 01:07N 40°46' W 074°01'0 3.3
2018-Feb-17 01:00N 40°46' W 074°00'1 1.6
2018-Feb-17 00:30N 40°46' W 074°01'0 0.1
2018-Feb-17 00:00N 40°46' W 074°01'0 0.0
2018-Feb-16 23:30N 40°46' W 074°01'0 0.0
2018-Feb-16 23:00N 40°46' W 074°01'0 0.0
2018-Feb-16 22:29N 40°46' W 074°01'0 0.1
2018-Feb-16 22:00N 40°46' W 074°01'0 0.0
2018-Feb-16 21:30N 40°46' W 074°01'0 0.1
2018-Feb-16 21:00N 40°46' W 074°01'1 0.2
2018-Feb-16 15:13N 40°46' W 074°01'1 4.3
2018-Feb-16 15:00N 40°45' W 074°01'0 0.0
2018-Feb-16 14:30N 40°45' W 074°01'0 0.0
2018-Feb-16 14:00N 40°45' W 074°01'0 0.0
2018-Feb-16 13:30N 40°45' W 074°01'0 0.0
2018-Feb-16 13:00N 40°45' W 074°01'0 0.0
2018-Feb-16 12:30N 40°45' W 074°01'1 1.5
2018-Feb-16 12:00N 40°46' W 074°00'1 1.4
2018-Feb-16 11:30N 40°46' W 074°01'0 0.0
2018-Feb-16 10:19N 40°46' W 074°01'0 0.0
2018-Feb-16 00:47N 40°46' W 074°01'2 8.1
2018-Feb-16 00:30N 40°44' W 074°02'1 2.5
2018-Feb-16 00:00N 40°43' W 074°01'1 2.4
2018-Feb-15 23:30N 40°44' W 074°02'1 2.4
2018-Feb-15 23:00N 40°43' W 074°01'1 2.5
2018-Feb-15 22:31N 40°44' W 074°02'1 2.5
2018-Feb-15 22:00N 40°43' W 074°01'3 6.8
2018-Feb-15 21:30N 40°46' W 074°01'0 0.0
2018-Feb-15 21:00N 40°46' W 074°01'0 0.0
2018-Feb-15 20:30N 40°46' W 074°01'0 0.0
2018-Feb-15 20:00N 40°46' W 074°01'0 0.0
2018-Feb-15 19:30N 40°46' W 074°01'0 0.0
2018-Feb-15 19:00N 40°46' W 074°01'0 0.0
2018-Feb-15 18:30N 40°46' W 074°01'0 0.0
2018-Feb-15 18:00N 40°46' W 074°01'0 0.0
2018-Feb-15 17:30N 40°46' W 074°01'0 0.0
2018-Feb-15 17:00N 40°46' W 074°01'0 0.0
2018-Feb-15 16:30N 40°46' W 074°01'0 0.0
2018-Feb-15 16:00N 40°46' W 074°01'0 0.0
2018-Feb-15 15:30N 40°46' W 074°01'0 0.0
2018-Feb-15 15:00N 40°46' W 074°01'0 0.0
2018-Feb-15 14:30N 40°46' W 074°01'0 0.0
2018-Feb-15 14:00N 40°46' W 074°01'0 0.0
2018-Feb-15 13:30N 40°46' W 074°01'0 0.1
2018-Feb-15 12:58N 40°46' W 074°01'0 0.0
2018-Feb-15 12:29N 40°46' W 074°01'0 0.0
2018-Feb-15 12:00N 40°46' W 074°01'0 0.0
2018-Feb-15 11:30N 40°46' W 074°01'0 0.0
2018-Feb-15 11:00N 40°46' W 074°01'0 0.0
2018-Feb-15 10:29N 40°46' W 074°01'0 0.0
2018-Feb-15 09:59N 40°46' W 074°01'0 0.0
2018-Feb-15 09:30N 40°46' W 074°01'0 0.0
2018-Feb-15 09:00N 40°46' W 074°01'0 0.0
2018-Feb-15 08:30N 40°46' W 074°01'0 0.0
2018-Feb-15 08:00N 40°46' W 074°01'0 0.0
2018-Feb-15 07:30N 40°46' W 074°01'0 0.0
2018-Feb-15 07:00N 40°46' W 074°01'0 0.0
2018-Feb-15 06:24N 40°46' W 074°01'0 0.0
2018-Feb-14 23:48N 40°46' W 074°01'1 4.1
2018-Feb-14 23:26N 40°45' W 074°01'1 1.9
2018-Feb-14 23:00N 40°46' W 074°01'0 0.7
2018-Feb-14 22:19N 40°46' W 074°01'1 3.8
2018-Feb-14 22:00N 40°45' W 074°01'3 6.0
2018-Feb-14 21:30N 40°42' W 074°02'4 7.3
2018-Feb-14 21:00N 40°46' W 074°00'3 6.4
2018-Feb-14 20:30N 40°43' W 074°02'0 0.5
2018-Feb-14 20:00N 40°42' W 074°01'3 6.5
2018-Feb-14 19:30N 40°46' W 074°00'2 3.5
2018-Feb-14 19:00N 40°44' W 074°01'2 4.0
2018-Feb-14 18:30N 40°42' W 073°60'3 6.8
2018-Feb-14 18:00N 40°46' W 074°00'3 5.6
2018-Feb-14 17:30N 40°43' W 074°01'0 0.4
2018-Feb-14 17:01N 40°43' W 074°01'3 5.4
2018-Feb-14 16:30N 40°46' W 074°00'5 9.4
2018-Feb-14 16:00N 40°41' W 074°02'3 5.4
2018-Feb-14 15:30N 40°44' W 074°01'2 3.2
2018-Feb-14 15:00N 40°45' W 074°01'0 0.2
2018-Feb-14 14:30N 40°45' W 074°01'0 0.1
2018-Feb-14 13:59N 40°45' W 074°01'0 0.6
2018-Feb-14 13:30N 40°46' W 074°01'0 0.1
2018-Feb-14 13:00N 40°46' W 074°01'0 0.1
2018-Feb-14 12:30N 40°46' W 074°01'1 1.8
2018-Feb-14 12:00N 40°46' W 074°01'0 0.2
2018-Feb-14 11:29N 40°46' W 074°01'0 0.0
2018-Feb-14 01:33N 40°46' W 074°01'0 0.0
2018-Feb-13 15:14N 40°47' W 074°00'1 5.4
2018-Feb-13 15:00N 40°46' W 074°01'0 0.4
2018-Feb-13 14:30N 40°45' W 074°01'0 0.4
2018-Feb-13 14:00N 40°46' W 074°01'0 0.1
2018-Feb-13 13:30N 40°46' W 074°01'0 0.0
2018-Feb-13 13:00N 40°46' W 074°01'0 0.1
2018-Feb-13 12:30N 40°46' W 074°01'1 1.6
2018-Feb-13 12:00N 40°46' W 074°01'1 1.0
2018-Feb-13 11:30N 40°47' W 074°01'0 0.0
2018-Feb-13 10:59N 40°47' W 074°01'0 0.0
2018-Feb-13 10:30N 40°47' W 074°01'0 0.0
2018-Feb-13 10:00N 40°47' W 074°01'0 0.0
2018-Feb-12 15:17N 40°47' W 074°01'1 4.3
2018-Feb-12 15:00N 40°46' W 074°01'0 0.0
2018-Feb-12 14:30N 40°46' W 074°01'1 1.7
2018-Feb-12 14:00N 40°45' W 074°01'1 1.3
2018-Feb-12 13:30N 40°45' W 074°01'1 1.8
2018-Feb-12 13:00N 40°46' W 074°01'0 0.0
2018-Feb-12 12:30N 40°46' W 074°01'0 0.0
2018-Feb-10 20:38N 40°46' W 074°01'1 4.3
2018-Feb-10 20:31N 40°46' W 074°01'2 3.7
2018-Feb-10 20:01N 40°44' W 074°02'0 0.2
2018-Feb-10 19:30N 40°44' W 074°02'0 0.0
2018-Feb-10 18:58N 40°44' W 074°02'0 0.0
2018-Feb-10 00:50N 40°44' W 074°02'2 6.5
2018-Feb-10 00:30N 40°42' W 074°00'0 0.2
2018-Feb-10 00:00N 40°42' W 074°00'2 4.4
2018-Feb-09 23:30N 40°44' W 074°02'1 1.8
2018-Feb-09 23:00N 40°43' W 074°01'1 3.7
2018-Feb-09 22:46N 40°44' W 074°02'2 8.3
2018-Feb-09 22:30N 40°42' W 074°00'1 1.3
2018-Feb-09 21:31N 40°43' W 074°01'1 0.6
2018-Feb-09 20:00N 40°44' W 074°02'1 0.2
2018-Feb-09 15:00N 40°43' W 074°02'1 0.4
2018-Feb-09 13:31N 40°42' W 074°02'2 0.8
2018-Feb-09 11:30N 40°44' W 074°02'0 0.0
2018-Feb-09 11:00N 40°44' W 074°02'2 0.2
2018-Feb-09 00:00N 40°42' W 074°00'2 4.3
2018-Feb-08 23:30N 40°44' W 074°02'2 3.2
2018-Feb-08 23:00N 40°42' W 074°01'0 0.1
2018-Feb-08 21:30N 40°42' W 074°02'1 2.0
2018-Feb-08 21:00N 40°42' W 074°00'2 0.7
2018-Feb-08 18:00N 40°44' W 074°02'0 0.0
2018-Feb-08 17:30N 40°44' W 074°02'0 0.0
2018-Feb-08 17:00N 40°44' W 074°02'0 0.0
2018-Feb-08 16:30N 40°44' W 074°02'0 0.0
2018-Feb-08 16:00N 40°44' W 074°02'0 0.0
2018-Feb-08 15:30N 40°44' W 074°02'1 2.4
2018-Feb-08 15:00N 40°43' W 074°01'1 0.5
2018-Feb-08 12:30N 40°42' W 074°00'1 2.6
2018-Feb-08 12:00N 40°43' W 074°02'1 0.1
2018-Feb-08 00:52N 40°44' W 074°02'2 6.2
2018-Feb-08 00:30N 40°42' W 074°00'0 0.3
2018-Feb-08 00:00N 40°42' W 074°00'2 4.3
2018-Feb-07 23:30N 40°44' W 074°02'1 2.2
2018-Feb-07 23:00N 40°43' W 074°01'1 2.3
2018-Feb-07 22:30N 40°42' W 074°00'2 4.3
2018-Feb-07 22:00N 40°44' W 074°02'1 2.2
2018-Feb-07 21:31N 40°43' W 074°01'  
Track history (hours):
 
Tides and Currents Weather Stations Pressure Air Temp Water Temp Dewpoint Dewpoint Depression Visibility Wind Speed Wind Dir Waves Ship Positions

Robert Fulton

Owner: PORT IMPERIAL FERRY CORP, WEEHAWKEN, NJ. More information available from US FCC via Universal Licensing System and Coast Guard Vessel Documentation Center.

Last reported at 2018-Feb-17 01:07 UTC. Time now 2018-Feb-20 03:45 UTC.
Position N 40°46' W 074°01'.

Length 28 m; draft 2 m.

Type: Passenger vessel. MMSI: 366702000.

Date/timePositionNaut miles runAvg speedWind from/ knotsBaromVisibWave heightAir tempDewpointWater temp
2018-Feb-17 01:07N 40°46' W 074°01'0 3.3
2018-Feb-17 01:00N 40°46' W 074°00'1 1.6
2018-Feb-17 00:30N 40°46' W 074°01'0 0.1
2018-Feb-17 00:00N 40°46' W 074°01'0 0.0
2018-Feb-16 23:30N 40°46' W 074°01'0 0.0
2018-Feb-16 23:00N 40°46' W 074°01'0 0.0
2018-Feb-16 22:29N 40°46' W 074°01'0 0.1
2018-Feb-16 22:00N 40°46' W 074°01'0 0.0
2018-Feb-16 21:30N 40°46' W 074°01'0 0.1
2018-Feb-16 21:00N 40°46' W 074°01'1 0.2
2018-Feb-16 15:13N 40°46' W 074°01'1 4.3
2018-Feb-16 15:00N 40°45' W 074°01'0 0.0
2018-Feb-16 14:30N 40°45' W 074°01'0 0.0
2018-Feb-16 14:00N 40°45' W 074°01'0 0.0
2018-Feb-16 13:30N 40°45' W 074°01'0 0.0
2018-Feb-16 13:00N 40°45' W 074°01'0 0.0
2018-Feb-16 12:30N 40°45' W 074°01'1 1.5
2018-Feb-16 12:00N 40°46' W 074°00'1 1.4
2018-Feb-16 11:30N 40°46' W 074°01'0 0.0
2018-Feb-16 10:19N 40°46' W 074°01'0 0.0
2018-Feb-16 00:47N 40°46' W 074°01'2 8.1
2018-Feb-16 00:30N 40°44' W 074°02'1 2.5
2018-Feb-16 00:00N 40°43' W 074°01'1 2.4
2018-Feb-15 23:30N 40°44' W 074°02'1 2.4
2018-Feb-15 23:00N 40°43' W 074°01'1 2.5
2018-Feb-15 22:31N 40°44' W 074°02'1 2.5
2018-Feb-15 22:00N 40°43' W 074°01'3 6.8
2018-Feb-15 21:30N 40°46' W 074°01'0 0.0
2018-Feb-15 21:00N 40°46' W 074°01'0 0.0
2018-Feb-15 20:30N 40°46' W 074°01'0 0.0
2018-Feb-15 20:00N 40°46' W 074°01'0 0.0
2018-Feb-15 19:30N 40°46' W 074°01'0 0.0
2018-Feb-15 19:00N 40°46' W 074°01'0 0.0
2018-Feb-15 18:30N 40°46' W 074°01'0 0.0
2018-Feb-15 18:00N 40°46' W 074°01'0 0.0
2018-Feb-15 17:30N 40°46' W 074°01'0 0.0
2018-Feb-15 17:00N 40°46' W 074°01'0 0.0
2018-Feb-15 16:30N 40°46' W 074°01'0 0.0
2018-Feb-15 16:00N 40°46' W 074°01'0 0.0
2018-Feb-15 15:30N 40°46' W 074°01'0 0.0
2018-Feb-15 15:00N 40°46' W 074°01'0 0.0
2018-Feb-15 14:30N 40°46' W 074°01'0 0.0
2018-Feb-15 14:00N 40°46' W 074°01'0 0.0
2018-Feb-15 13:30N 40°46' W 074°01'0 0.1
2018-Feb-15 12:58N 40°46' W 074°01'0 0.0
2018-Feb-15 12:29N 40°46' W 074°01'0 0.0
2018-Feb-15 12:00N 40°46' W 074°01'0 0.0
2018-Feb-15 11:30N 40°46' W 074°01'0 0.0
2018-Feb-15 11:00N 40°46' W 074°01'0 0.0
2018-Feb-15 10:29N 40°46' W 074°01'0 0.0
2018-Feb-15 09:59N 40°46' W 074°01'0 0.0
2018-Feb-15 09:30N 40°46' W 074°01'0 0.0
2018-Feb-15 09:00N 40°46' W 074°01'0 0.0
2018-Feb-15 08:30N 40°46' W 074°01'0 0.0
2018-Feb-15 08:00N 40°46' W 074°01'0 0.0
2018-Feb-15 07:30N 40°46' W 074°01'0 0.0
2018-Feb-15 07:00N 40°46' W 074°01'0 0.0
2018-Feb-15 06:24N 40°46' W 074°01'0 0.0
2018-Feb-14 23:48N 40°46' W 074°01'1 4.1
2018-Feb-14 23:26N 40°45' W 074°01'1 1.9
2018-Feb-14 23:00N 40°46' W 074°01'0 0.7
2018-Feb-14 22:19N 40°46' W 074°01'1 3.8
2018-Feb-14 22:00N 40°45' W 074°01'3 6.0
2018-Feb-14 21:30N 40°42' W 074°02'4 7.3
2018-Feb-14 21:00N 40°46' W 074°00'3 6.4
2018-Feb-14 20:30N 40°43' W 074°02'0 0.5
2018-Feb-14 20:00N 40°42' W 074°01'3 6.5
2018-Feb-14 19:30N 40°46' W 074°00'2 3.5
2018-Feb-14 19:00N 40°44' W 074°01'2 4.0
2018-Feb-14 18:30N 40°42' W 073°60'3 6.8
2018-Feb-14 18:00N 40°46' W 074°00'3 5.6
2018-Feb-14 17:30N 40°43' W 074°01'0 0.4
2018-Feb-14 17:01N 40°43' W 074°01'3 5.4
2018-Feb-14 16:30N 40°46' W 074°00'5 9.4
2018-Feb-14 16:00N 40°41' W 074°02'3 5.4
2018-Feb-14 15:30N 40°44' W 074°01'2 3.2
2018-Feb-14 15:00N 40°45' W 074°01'0 0.2
2018-Feb-14 14:30N 40°45' W 074°01'0 0.1
2018-Feb-14 13:59N 40°45' W 074°01'0 0.6
2018-Feb-14 13:30N 40°46' W 074°01'0 0.1
2018-Feb-14 13:00N 40°46' W 074°01'0 0.1
2018-Feb-14 12:30N 40°46' W 074°01'1 1.8
2018-Feb-14 12:00N 40°46' W 074°01'0 0.2
2018-Feb-14 11:29N 40°46' W 074°01'0 0.0
2018-Feb-14 01:33N 40°46' W 074°01'0 0.0
2018-Feb-13 15:14N 40°47' W 074°00'1 5.4
2018-Feb-13 15:00N 40°46' W 074°01'0 0.4
2018-Feb-13 14:30N 40°45' W 074°01'0 0.4
2018-Feb-13 14:00N 40°46' W 074°01'0 0.1
2018-Feb-13 13:30N 40°46' W 074°01'0 0.0
2018-Feb-13 13:00N 40°46' W 074°01'0 0.1
2018-Feb-13 12:30N 40°46' W 074°01'1 1.6
2018-Feb-13 12:00N 40°46' W 074°01'1 1.0
2018-Feb-13 11:30N 40°47' W 074°01'0 0.0
2018-Feb-13 10:59N 40°47' W 074°01'0 0.0
2018-Feb-13 10:30N 40°47' W 074°01'0 0.0
2018-Feb-13 10:00N 40°47' W 074°01'0 0.0
2018-Feb-12 15:17N 40°47' W 074°01'1 4.3
2018-Feb-12 15:00N 40°46' W 074°01'0 0.0
2018-Feb-12 14:30N 40°46' W 074°01'1 1.7
2018-Feb-12 14:00N 40°45' W 074°01'1 1.3
2018-Feb-12 13:30N 40°45' W 074°01'1 1.8
2018-Feb-12 13:00N 40°46' W 074°01'0 0.0
2018-Feb-12 12:30N 40°46' W 074°01'0 0.0
2018-Feb-10 20:38N 40°46' W 074°01'1 4.3
2018-Feb-10 20:31N 40°46' W 074°01'2 3.7
2018-Feb-10 20:01N 40°44' W 074°02'0 0.2
2018-Feb-10 19:30N 40°44' W 074°02'0 0.0
2018-Feb-10 18:58N 40°44' W 074°02'0 0.0
2018-Feb-10 00:50N 40°44' W 074°02'2 6.5
2018-Feb-10 00:30N 40°42' W 074°00'0 0.2
2018-Feb-10 00:00N 40°42' W 074°00'2 4.4
2018-Feb-09 23:30N 40°44' W 074°02'1 1.8
2018-Feb-09 23:00N 40°43' W 074°01'1 3.7
2018-Feb-09 22:46N 40°44' W 074°02'2 8.3
2018-Feb-09 22:30N 40°42' W 074°00'1 1.3
2018-Feb-09 21:31N 40°43' W 074°01'1 0.6
2018-Feb-09 20:00N 40°44' W 074°02'1 0.2
2018-Feb-09 15:00N 40°43' W 074°02'1 0.4
2018-Feb-09 13:31N 40°42' W 074°02'2 0.8
2018-Feb-09 11:30N 40°44' W 074°02'0 0.0
2018-Feb-09 11:00N 40°44' W 074°02'2 0.2
2018-Feb-09 00:00N 40°42' W 074°00'2 4.3
2018-Feb-08 23:30N 40°44' W 074°02'2 3.2
2018-Feb-08 23:00N 40°42' W 074°01'0 0.1
2018-Feb-08 21:30N 40°42' W 074°02'1 2.0
2018-Feb-08 21:00N 40°42' W 074°00'2 0.7
2018-Feb-08 18:00N 40°44' W 074°02'0 0.0
2018-Feb-08 17:30N 40°44' W 074°02'0 0.0
2018-Feb-08 17:00N 40°44' W 074°02'0 0.0
2018-Feb-08 16:30N 40°44' W 074°02'0 0.0
2018-Feb-08 16:00N 40°44' W 074°02'0 0.0
2018-Feb-08 15:30N 40°44' W 074°02'1 2.4
2018-Feb-08 15:00N 40°43' W 074°01'1 0.5
2018-Feb-08 12:30N 40°42' W 074°00'1 2.6
2018-Feb-08 12:00N 40°43' W 074°02'1 0.1
2018-Feb-08 00:52N 40°44' W 074°02'2 6.2
2018-Feb-08 00:30N 40°42' W 074°00'0 0.3
2018-Feb-08 00:00N 40°42' W 074°00'2 4.3
2018-Feb-07 23:30N 40°44' W 074°02'1 2.2
2018-Feb-07 23:00N 40°43' W 074°01'1 2.3
2018-Feb-07 22:30N 40°42' W 074°00'2 4.3
2018-Feb-07 22:00N 40°44' W 074°02'1 2.2
2018-Feb-07 21:31N 40°43' W 074°01'  

Dump ship's entire track history